createdAt,value
2022-08-22T00:02:05.787Z,100386.50
2022-08-22T00:02:41.977Z,100329.84
2022-08-22T00:02:55.136Z,100354.94
2022-08-22T00:03:10.557Z,100387.38
2022-08-22T00:04:21.329Z,100377.56
2022-08-22T00:06:38.733Z,100381.19
2022-08-22T00:08:50.848Z,100374.13
2022-08-22T00:11:02.599Z,100384.66
2022-08-22T00:13:11.139Z,100381.69
2022-08-22T00:15:43.444Z,100380.84
2022-08-22T00:17:50.301Z,100375.53
2022-08-22T00:20:02.121Z,100375.34
2022-08-22T00:22:16.208Z,100377.94
2022-08-22T00:24:30.162Z,100371.88
2022-08-22T00:26:46.476Z,100362.63
2022-08-22T00:28:53.377Z,100374.91
2022-08-22T00:30:59.923Z,100375.91
2022-08-22T00:33:06.308Z,100366.72
2022-08-22T00:35:18.515Z,100368.41
2022-08-22T00:37:28.689Z,100367.69
2022-08-22T00:39:37.353Z,100375.97
2022-08-22T00:41:59.513Z,100365.22
2022-08-22T00:44:31.869Z,100367.75
2022-08-22T00:47:03.593Z,100370.28
2022-08-22T00:49:30.815Z,100373.66
2022-08-22T00:51:59.428Z,100377.75
2022-08-22T00:54:16.768Z,100365.09
2022-08-22T00:56:41.717Z,100367.03
2022-08-22T00:59:23.828Z,100375.03
2022-08-22T01:01:32.556Z,100368.34
2022-08-22T01:03:54.643Z,100370.88
2022-08-22T01:06:14.936Z,100373.31
2022-08-22T01:08:41.079Z,100365.97
2022-08-22T01:11:01.936Z,100367.66
2022-08-22T01:13:22.539Z,100360.88
2022-08-22T01:15:29.228Z,100368.34
2022-08-22T01:18:03.573Z,100370.28
2022-08-22T01:20:32.929Z,100361.94
2022-08-22T01:23:10.448Z,100367.66
2022-08-22T01:25:49.785Z,100358.09
2022-08-22T01:28:13.788Z,100364.56
2022-08-22T01:30:47.817Z,100363.53
2022-08-22T01:33:44.488Z,100361.63
2022-08-22T01:35:59.611Z,100358.69
2022-08-22T01:38:44.878Z,100356.41
2022-08-22T01:41:17.112Z,100352.22
2022-08-22T01:43:51.453Z,100352.75
2022-08-22T01:46:24.274Z,100344.59
2022-08-22T01:48:40.210Z,100352.50
2022-08-22T01:50:46.900Z,100349.91
2022-08-22T01:53:00.136Z,100350.69
2022-08-22T01:55:08.779Z,100342.81
2022-08-22T01:57:13.232Z,100344.59
2022-08-22T01:59:25.416Z,100354.56
2022-08-22T02:01:56.214Z,100350.94
2022-08-22T02:04:05.636Z,100352.78
2022-08-22T02:06:14.730Z,100349.28
2022-08-22T02:08:26.583Z,100353.84
2022-08-22T02:10:46.870Z,100351.19
2022-08-22T02:13:03.487Z,100368.91
2022-08-22T02:15:18.553Z,100354.88
2022-08-22T02:17:27.336Z,100352.47
2022-08-22T02:19:37.963Z,100357.19
2022-08-22T02:21:47.120Z,100361.72
2022-08-22T02:23:56.878Z,100355.56
2022-08-22T02:26:08.387Z,100358.16
2022-08-22T02:28:17.952Z,100352.06
2022-08-22T02:30:23.369Z,100353.63
2022-08-22T02:32:30.784Z,100343.16
2022-08-22T02:34:40.127Z,100350.28
2022-08-22T02:36:49.157Z,100341.34
2022-08-22T02:39:04.530Z,100350.09
2022-08-22T02:41:17.890Z,100353.44
2022-08-22T02:43:27.628Z,100350.56
2022-08-22T02:45:40.736Z,100347.91
2022-08-22T02:47:56.800Z,100348.09
2022-08-22T02:50:12.979Z,100346.47
2022-08-22T02:52:22.669Z,100342.84
2022-08-22T02:54:36.459Z,100343.63
2022-08-22T02:56:45.480Z,100350.78
2022-08-22T02:58:53.802Z,100336.78
2022-08-22T03:01:26.216Z,100337.84
2022-08-22T03:03:32.309Z,100343.22
2022-08-22T03:05:48.162Z,100344.13
2022-08-22T03:08:00.596Z,100340.59
2022-08-22T03:10:14.824Z,100343.28
2022-08-22T03:12:25.742Z,100339.91
2022-08-22T03:14:33.374Z,100342.56
2022-08-22T03:16:41.174Z,100346.19
2022-08-22T03:18:54.149Z,100348.09
2022-08-22T03:21:12.542Z,100343.81
2022-08-22T03:23:34.245Z,100349.91
2022-08-22T03:25:44.790Z,100346.47
2022-08-22T03:27:54.659Z,100345.66
2022-08-22T03:30:03.113Z,100346.66
2022-08-22T03:32:13.037Z,100348.34
2022-08-22T03:34:20.192Z,100352.88
2022-08-22T03:36:31.322Z,100349.19
2022-08-22T03:38:52.333Z,100351.06
2022-08-22T03:41:25.163Z,100347.03
2022-08-22T03:43:56.973Z,100352.31
2022-08-22T03:46:39.141Z,100354.25
2022-08-22T03:49:05.671Z,100352.53
2022-08-22T03:51:23.292Z,100358.06
2022-08-22T03:53:41.023Z,100355.50
2022-08-22T03:56:25.459Z,100363.63
2022-08-22T03:58:58.569Z,100361.13
2022-08-22T04:01:34.964Z,100364.81
2022-08-22T04:04:10.470Z,100359.72
2022-08-22T04:06:48.407Z,100365.00
2022-08-22T04:09:25.825Z,100367.06
2022-08-22T04:11:51.655Z,100359.31
2022-08-22T04:14:10.414Z,100365.41
2022-08-22T04:17:14.829Z,100364.72
2022-08-22T04:19:59.919Z,100365.00
2022-08-22T04:22:30.220Z,100374.97
2022-08-22T04:24:59.595Z,100379.41
2022-08-22T04:27:30.160Z,100382.91
2022-08-22T04:29:59.269Z,100379.44
2022-08-22T04:32:27.300Z,100379.44
2022-08-22T04:34:53.234Z,100371.66
2022-08-22T04:37:19.716Z,100381.38
2022-08-22T04:39:49.216Z,100375.13
2022-08-22T04:42:32.156Z,100372.53
2022-08-22T04:45:01.949Z,100378.78
2022-08-22T04:47:32.075Z,100378.78
2022-08-22T04:50:00.952Z,100378.88
2022-08-22T04:52:32.840Z,100389.41
2022-08-22T04:55:04.197Z,100384.94
2022-08-22T04:57:32.183Z,100380.63
2022-08-22T05:00:00.363Z,100380.63
2022-08-22T05:02:27.495Z,100376.22
2022-08-22T05:04:52.953Z,100383.22
2022-08-22T05:07:17.515Z,100385.25
2022-08-22T05:09:43.896Z,100389.63
2022-08-22T05:12:11.980Z,100392.16
2022-08-22T05:14:40.842Z,100387.81
2022-08-22T05:17:05.875Z,100394.06
2022-08-22T05:19:33.158Z,100388.84
2022-08-22T05:21:55.433Z,100382.72
2022-08-22T05:24:23.504Z,100391.47
2022-08-22T05:26:53.765Z,100380.91
2022-08-22T05:29:20.178Z,100382.72
2022-08-22T05:31:50.069Z,100387.03
2022-08-22T05:34:16.248Z,100393.19
2022-08-22T05:36:24.485Z,100389.63
2022-08-22T05:38:31.502Z,100392.25
2022-08-22T05:40:37.795Z,100392.28
2022-08-22T05:42:41.174Z,100382.59
2022-08-22T05:44:44.099Z,100384.34
2022-08-22T05:46:52.930Z,100383.50
2022-08-22T05:49:00.590Z,100384.44
2022-08-22T05:51:16.074Z,100387.00
2022-08-22T05:53:30.891Z,100382.59
2022-08-22T05:55:41.586Z,100383.47
2022-08-22T05:57:51.182Z,100386.91
2022-08-22T06:00:02.077Z,100391.31
2022-08-22T06:02:19.868Z,100395.75
2022-08-22T06:04:31.597Z,100394.84
2022-08-22T06:06:43.486Z,100390.53
2022-08-22T06:10:55.475Z,100399.50
2022-08-22T06:13:04.527Z,100402.97
2022-08-22T06:15:21.004Z,100397.63
2022-08-22T06:17:28.213Z,100403.69
2022-08-22T06:19:33.869Z,100399.94
2022-08-22T06:21:41.841Z,100396.22
2022-08-22T06:23:49.255Z,100403.22
2022-08-22T06:25:54.963Z,100400.63
2022-08-22T06:28:01.554Z,100405.84
2022-08-22T06:30:07.323Z,100406.75
2022-08-22T06:32:13.996Z,100404.00
2022-08-22T06:34:24.490Z,100417.97
2022-08-22T06:36:33.963Z,100413.41
2022-08-22T06:38:54.831Z,100419.44
2022-08-22T06:41:01.469Z,100415.94
2022-08-22T06:43:06.921Z,100415.00
2022-08-22T06:45:13.106Z,100426.44
2022-08-22T06:47:19.285Z,100426.44
2022-08-22T06:49:24.182Z,100427.34
2022-08-22T06:51:30.136Z,100423.00
2022-08-22T06:53:37.092Z,100417.56
2022-08-22T06:55:48.399Z,100411.09
2022-08-22T06:57:56.435Z,100411.09
2022-08-22T07:00:01.289Z,100409.09
2022-08-22T07:02:11.032Z,100421.44
2022-08-22T07:04:14.357Z,100418.84
2022-08-22T07:06:20.026Z,100425.09
2022-08-22T07:08:25.781Z,100426.84
2022-08-22T07:10:28.696Z,100431.91
2022-08-22T07:12:38.001Z,100429.78
2022-08-22T07:14:44.208Z,100431.38
2022-08-22T07:16:56.809Z,100426.91
2022-08-22T07:19:00.530Z,100432.09
2022-08-22T07:21:08.325Z,100430.94
2022-08-22T07:23:14.926Z,100433.19
2022-08-22T07:25:17.936Z,100435.16
2022-08-22T07:27:37.301Z,100437.09
2022-08-22T07:29:48.955Z,100440.50
2022-08-22T07:31:56.865Z,100435.19
2022-08-22T07:34:10.012Z,100437.00
2022-08-22T07:36:23.406Z,100432.66
2022-08-22T07:38:34.745Z,100449.47
2022-08-22T07:40:43.783Z,100450.88
2022-08-22T07:42:51.579Z,100451.56
2022-08-22T07:45:06.390Z,100451.69
2022-08-22T07:47:11.842Z,100451.81
2022-08-22T07:49:15.653Z,100442.91
2022-08-22T07:51:24.141Z,100455.13
2022-08-22T07:53:35.020Z,100451.44
2022-08-22T07:55:48.472Z,100447.56
2022-08-22T07:57:55.057Z,100451.44
2022-08-22T08:00:01.420Z,100444.78
2022-08-22T08:02:16.697Z,100448.13
2022-08-22T08:04:24.733Z,100442.13
2022-08-22T08:06:29.082Z,100449.56
2022-08-22T08:08:34.143Z,100452.22
2022-08-22T08:10:40.889Z,100452.03
2022-08-22T08:12:56.163Z,100451.00
2022-08-22T08:15:11.504Z,100450.75
2022-08-22T08:17:21.626Z,100452.50
2022-08-22T08:19:25.530Z,100451.38
2022-08-22T08:21:31.870Z,100445.75
2022-08-22T08:23:39.681Z,100444.84
2022-08-22T08:25:54.460Z,100445.13
2022-08-22T08:28:17.060Z,100443.16
2022-08-22T08:30:25.012Z,100445.31
2022-08-22T08:32:32.543Z,100442.19
2022-08-22T08:34:37.494Z,100447.13
2022-08-22T08:36:51.761Z,100444.91
2022-08-22T08:39:03.094Z,100441.22
2022-08-22T08:41:29.469Z,100448.03
2022-08-22T08:43:44.676Z,100450.69
2022-08-22T08:46:10.703Z,100446.84
2022-08-22T08:48:36.855Z,100439.03
2022-08-22T08:50:55.039Z,100441.88
2022-08-22T08:53:23.894Z,100440.97
2022-08-22T08:55:42.683Z,100432.88
2022-08-22T08:57:59.440Z,100438.59
2022-08-22T09:00:14.463Z,100437.25
2022-08-22T09:02:49.695Z,100438.59
2022-08-22T09:05:19.882Z,100443.38
2022-08-22T09:07:46.741Z,100445.50
2022-08-22T09:10:11.252Z,100443.34
2022-08-22T09:12:32.370Z,100437.09
2022-08-22T09:15:01.918Z,100437.84
2022-08-22T09:17:34.627Z,100445.09
2022-08-22T09:20:21.998Z,100448.34
2022-08-22T09:23:04.947Z,100448.59
2022-08-22T09:25:36.724Z,100441.72
2022-08-22T09:27:49.900Z,100445.28
2022-08-22T09:29:59.957Z,100445.16
2022-08-22T09:32:13.045Z,100438.53
2022-08-22T09:34:23.831Z,100437.44
2022-08-22T09:36:33.388Z,100434.38
2022-08-22T09:38:50.083Z,100424.91
2022-08-22T09:41:02.880Z,100434.41
2022-08-22T09:43:11.045Z,100422.63
2022-08-22T09:45:38.108Z,100423.41
2022-08-22T09:47:51.344Z,100408.53
2022-08-22T09:50:05.814Z,100409.03
2022-08-22T09:52:33.263Z,100404.88
2022-08-22T09:54:45.033Z,100405.59
2022-08-22T09:57:15.256Z,100412.06
2022-08-22T09:59:23.984Z,100401.31
2022-08-22T10:01:32.980Z,100409.94
2022-08-22T10:04:21.336Z,100405.56
2022-08-22T10:06:28.717Z,100401.44
2022-08-22T10:08:48.486Z,100396.69
2022-08-22T10:11:24.426Z,100391.88
2022-08-22T10:13:38.301Z,100388.19
2022-08-22T10:15:45.285Z,100379.75
2022-08-22T10:18:02.749Z,100382.34
2022-08-22T10:20:18.996Z,100375.63
2022-08-22T10:22:35.177Z,100372.19
2022-08-22T10:24:47.053Z,100376.75
2022-08-22T10:26:55.338Z,100377.69
2022-08-22T10:29:08.271Z,100373.47
2022-08-22T10:31:29.198Z,100372.19
2022-08-22T10:33:39.821Z,100366.31
2022-08-22T10:35:55.989Z,100365.63
2022-08-22T10:38:04.769Z,100377.63
2022-08-22T10:40:14.184Z,100372.28
2022-08-22T10:42:27.978Z,100368.97
2022-08-22T10:44:41.837Z,100368.41
2022-08-22T10:46:52.432Z,100364.66
2022-08-22T10:48:59.705Z,100374.31
2022-08-22T10:51:23.057Z,100368.38
2022-08-22T10:53:34.717Z,100368.38
2022-08-22T10:55:41.554Z,100364.09
2022-08-22T10:58:09.743Z,100354.38
2022-08-22T11:00:32.029Z,100359.72
2022-08-22T11:02:42.231Z,100364.97
2022-08-22T11:05:14.790Z,100354.75
2022-08-22T11:07:40.735Z,100351.81
2022-08-22T11:09:56.067Z,100349.69
2022-08-22T11:12:04.479Z,100349.16
2022-08-22T11:14:28.569Z,100342.16
2022-08-22T11:16:55.149Z,100339.16
2022-08-22T11:19:15.160Z,100340.88
2022-08-22T11:21:27.023Z,100334.16
2022-08-22T11:23:41.933Z,100342.00
2022-08-22T11:25:53.861Z,100329.34
2022-08-22T11:28:29.883Z,100334.38
2022-08-22T11:30:45.714Z,100331.91
2022-08-22T11:33:14.503Z,100320.75
2022-08-22T11:35:23.975Z,100327.03
2022-08-22T11:37:51.352Z,100317.19
2022-08-22T11:40:15.514Z,100325.97
2022-08-22T11:42:25.474Z,100322.34
2022-08-22T11:44:50.053Z,100312.22
2022-08-22T11:46:57.167Z,100315.38
2022-08-22T11:49:26.788Z,100310.13
2022-08-22T11:51:51.754Z,100314.09
2022-08-22T11:54:04.153Z,100304.34
2022-08-22T11:56:20.340Z,100306.66
2022-08-22T11:58:30.933Z,100309.78
2022-08-22T12:00:39.907Z,100304.16
2022-08-22T12:02:58.935Z,100303.47
2022-08-22T12:05:20.034Z,100297.47
2022-08-22T12:07:31.170Z,100307.66
2022-08-22T12:09:44.050Z,100296.44
2022-08-22T12:12:00.046Z,100300.59
2022-08-22T12:14:07.227Z,100299.38
2022-08-22T12:16:17.566Z,100298.31
2022-08-22T12:18:55.328Z,100291.28
2022-08-22T12:21:18.935Z,100297.28
2022-08-22T12:23:49.240Z,100293.44
2022-08-22T12:26:10.659Z,100286.63
2022-08-22T12:28:28.923Z,100288.53
2022-08-22T12:30:37.994Z,100285.47
2022-08-22T12:33:09.690Z,100280.28
2022-08-22T12:35:33.364Z,100275.88
2022-08-22T12:37:52.805Z,100274.91
2022-08-22T12:40:26.422Z,100275.09
2022-08-22T12:42:46.143Z,100272.13
2022-08-22T12:45:09.661Z,100271.81
2022-08-22T12:47:34.411Z,100267.16
2022-08-22T12:49:52.636Z,100269.91
2022-08-22T12:52:09.416Z,100267.53
2022-08-22T12:54:33.656Z,100260.00
2022-08-22T12:56:47.935Z,100259.50
2022-08-22T12:59:19.085Z,100266.97
2022-08-22T13:01:23.344Z,100258.38
2022-08-22T13:03:44.086Z,100253.31
2022-08-22T13:05:56.703Z,100249.50
2022-08-22T13:08:07.674Z,100257.31
2022-08-22T13:10:36.486Z,100250.56
2022-08-22T13:12:46.391Z,100240.94
2022-08-22T13:14:54.379Z,100245.13
2022-08-22T13:17:01.656Z,100241.88
2022-08-22T13:19:28.529Z,100243.88
2022-08-22T13:21:36.082Z,100239.88
2022-08-22T13:23:44.723Z,100232.88
2022-08-22T13:26:10.319Z,100237.47
2022-08-22T13:28:14.831Z,100235.97
2022-08-22T13:30:21.739Z,100231.81
2022-08-22T13:32:32.577Z,100234.06
2022-08-22T13:34:43.663Z,100236.78
2022-08-22T13:36:52.098Z,100235.00
2022-08-22T13:39:02.576Z,100238.00
2022-08-22T13:41:09.246Z,100241.31
2022-08-22T13:43:18.908Z,100245.75
2022-08-22T13:45:25.101Z,100236.22
2022-08-22T13:47:31.765Z,100235.59
2022-08-22T13:49:36.988Z,100231.94
2022-08-22T13:51:48.203Z,100228.56
2022-08-22T13:54:00.751Z,100231.06
2022-08-22T13:56:15.868Z,100230.50
2022-08-22T13:58:27.104Z,100228.97
2022-08-22T14:00:59.695Z,100229.47
2022-08-22T14:03:08.075Z,100228.03
2022-08-22T14:05:26.270Z,100225.38
2022-08-22T14:07:34.841Z,100224.09
2022-08-22T14:09:51.318Z,100218.50
2022-08-22T14:12:08.159Z,100221.66
2022-08-22T14:14:24.076Z,100219.16
2022-08-22T14:16:33.876Z,100216.44
2022-08-22T14:18:45.703Z,100218.66
2022-08-22T14:20:50.088Z,100213.88
2022-08-22T14:23:03.480Z,100215.28
2022-08-22T14:25:10.447Z,100210.88
2022-08-22T14:27:17.178Z,100209.56
2022-08-22T14:29:26.054Z,100197.44
2022-08-22T14:31:29.914Z,100208.75
2022-08-22T14:33:40.117Z,100205.38
2022-08-22T14:35:52.681Z,100204.56
2022-08-22T14:38:17.819Z,100203.06
2022-08-22T14:40:23.999Z,100194.13
2022-08-22T14:42:32.253Z,100190.69
2022-08-22T14:44:44.669Z,100186.78
2022-08-22T14:46:52.363Z,100185.50
2022-08-22T14:49:25.264Z,100179.88
2022-08-22T14:51:29.080Z,100175.97
2022-08-22T14:53:35.638Z,100183.53
2022-08-22T14:55:40.106Z,100181.56
2022-08-22T14:57:49.912Z,100176.25
2022-08-22T14:59:53.908Z,100180.19
2022-08-22T15:02:01.067Z,100177.41
2022-08-22T15:04:08.217Z,100168.63
2022-08-22T15:06:13.228Z,100170.16
2022-08-22T15:08:27.405Z,100172.50
2022-08-22T15:10:34.120Z,100173.88
2022-08-22T15:12:46.508Z,100168.16
2022-08-22T15:14:54.615Z,100167.59
2022-08-22T15:17:01.482Z,100166.78
2022-08-22T15:19:22.808Z,100163.84
2022-08-22T15:21:29.555Z,100172.38
2022-08-22T15:23:33.991Z,100170.19
2022-08-22T15:25:59.754Z,100165.81
2022-08-22T15:28:14.355Z,100171.91
2022-08-22T15:30:33.640Z,100172.72
2022-08-22T15:32:41.822Z,100167.91
2022-08-22T15:34:47.670Z,100164.44
2022-08-22T15:37:29.522Z,100167.75
2022-08-22T15:39:39.125Z,100170.94
2022-08-22T15:41:46.946Z,100172.25
2022-08-22T15:43:51.844Z,100165.81
2022-08-22T15:46:19.393Z,100165.41
2022-08-22T15:48:30.923Z,100162.97
2022-08-22T15:50:39.820Z,100159.69
2022-08-22T15:53:11.311Z,100154.94
2022-08-22T15:55:25.259Z,100152.75
2022-08-22T15:57:31.500Z,100153.84
2022-08-22T15:59:54.183Z,100152.00
2022-08-22T16:02:04.874Z,100153.34
2022-08-22T16:04:13.694Z,100151.56
2022-08-22T16:06:46.652Z,100150.28
2022-08-22T16:08:53.000Z,100141.75
2022-08-22T16:11:14.803Z,100142.53
2022-08-22T16:13:39.760Z,100139.78
2022-08-22T16:16:00.527Z,100138.44
2022-08-22T16:18:03.598Z,100136.88
2022-08-22T16:20:44.112Z,100136.88
2022-08-22T16:23:09.484Z,100133.72
2022-08-22T16:25:12.402Z,100137.00
2022-08-22T16:27:20.130Z,100143.38
2022-08-22T16:29:35.519Z,100140.44
2022-08-22T16:32:03.423Z,100140.56
2022-08-22T16:34:25.094Z,100147.16
2022-08-22T16:36:43.589Z,100139.56
2022-08-22T16:38:51.797Z,100130.94
2022-08-22T16:40:54.770Z,100138.97
2022-08-22T16:43:14.140Z,100136.06
2022-08-22T16:45:20.062Z,100135.53
2022-08-22T16:47:40.584Z,100128.25
2022-08-22T16:50:05.134Z,100137.41
2022-08-22T16:52:39.647Z,100133.81
2022-08-22T16:54:46.189Z,100135.00
2022-08-22T16:57:04.049Z,100133.97
2022-08-22T16:59:24.602Z,100138.91
2022-08-22T17:01:59.355Z,100131.41
2022-08-22T17:04:12.026Z,100133.44
2022-08-22T17:06:42.303Z,100145.84
2022-08-22T17:08:58.248Z,100138.63
2022-08-22T17:11:15.244Z,100147.69
2022-08-22T17:13:34.875Z,100149.81
2022-08-22T17:15:53.173Z,100144.81
2022-08-22T17:18:13.702Z,100141.72
2022-08-22T17:20:29.445Z,100145.47
2022-08-22T17:22:43.799Z,100142.06
2022-08-22T17:24:51.889Z,100147.72
2022-08-22T17:27:03.396Z,100153.94
2022-08-22T17:29:23.436Z,100154.28
2022-08-22T17:31:32.648Z,100150.09
2022-08-22T17:34:01.491Z,100158.44
2022-08-22T17:36:21.729Z,100159.63
2022-08-22T17:38:48.479Z,100155.00
2022-08-22T17:41:00.866Z,100156.38
2022-08-22T17:43:15.649Z,100153.81
2022-08-22T17:45:28.087Z,100160.34
2022-08-22T17:47:40.142Z,100157.03
2022-08-22T17:49:52.414Z,100157.03
2022-08-22T17:52:01.116Z,100157.97
2022-08-22T17:54:16.098Z,100154.75
2022-08-22T17:56:23.658Z,100154.69
2022-08-22T17:58:37.800Z,100160.41
2022-08-22T18:00:51.992Z,100163.72
2022-08-22T18:03:00.106Z,100169.50
2022-08-22T18:05:09.400Z,100165.41
2022-08-22T18:07:53.043Z,100168.72
2022-08-22T18:09:59.847Z,100170.63
2022-08-22T18:12:08.960Z,100166.13
2022-08-22T18:14:25.716Z,100167.41
2022-08-22T18:16:32.297Z,100175.44
2022-08-22T18:18:39.903Z,100173.34
2022-08-22T18:20:50.727Z,100169.19
2022-08-22T18:22:57.774Z,100177.44
2022-08-22T18:25:04.445Z,100177.00
2022-08-22T18:27:34.662Z,100182.56
2022-08-22T18:29:46.057Z,100172.25
2022-08-22T18:31:54.611Z,100179.03
2022-08-22T18:34:04.025Z,100175.94
2022-08-22T18:36:14.591Z,100185.41
2022-08-22T18:38:24.306Z,100183.38
2022-08-22T18:40:46.835Z,100196.19
2022-08-22T18:42:59.675Z,100183.56
2022-08-22T18:45:04.616Z,100187.59
2022-08-22T18:47:17.346Z,100189.78
2022-08-22T18:49:43.864Z,100187.78
2022-08-22T18:52:15.793Z,100188.53
2022-08-22T18:54:32.163Z,100191.47
2022-08-22T18:56:50.094Z,100191.66
2022-08-22T18:59:06.195Z,100191.16
2022-08-22T19:01:45.038Z,100195.13
2022-08-22T19:04:08.342Z,100195.31
2022-08-22T19:06:32.886Z,100200.19
2022-08-22T19:09:11.778Z,100198.81
2022-08-22T19:11:35.123Z,100193.75
2022-08-22T19:13:57.683Z,100195.75
2022-08-22T19:16:14.049Z,100204.38
2022-08-22T19:18:34.418Z,100202.84
2022-08-22T19:20:57.669Z,100201.28
2022-08-22T19:23:36.896Z,100214.00
2022-08-22T19:26:18.090Z,100215.75
2022-08-22T19:28:36.044Z,100213.16
2022-08-22T19:30:43.780Z,100216.09
2022-08-22T19:32:59.902Z,100219.13
2022-08-22T19:35:20.081Z,100222.09
2022-08-22T19:37:32.972Z,100219.00
2022-08-22T19:39:54.687Z,100229.84
2022-08-22T19:41:59.432Z,100221.16
2022-08-22T19:44:03.846Z,100232.69
2022-08-22T19:46:10.064Z,100224.78
2022-08-22T19:48:14.532Z,100225.91
2022-08-22T19:50:30.181Z,100240.41
2022-08-22T19:52:55.251Z,100234.47
2022-08-22T19:55:04.712Z,100233.09
2022-08-22T19:57:17.223Z,100235.75
2022-08-22T19:59:31.554Z,100235.16
2022-08-22T20:01:43.834Z,100229.13
2022-08-22T20:03:53.666Z,100232.66
2022-08-22T20:06:05.466Z,100231.09
2022-08-22T20:08:40.850Z,100231.09
2022-08-22T20:10:58.646Z,100234.09
2022-08-22T20:13:07.596Z,100231.63
2022-08-22T20:15:20.247Z,100232.53
2022-08-22T20:17:42.242Z,100238.81
2022-08-22T20:22:18.593Z,100237.88
2022-08-22T20:24:27.993Z,100237.13
2022-08-22T20:26:31.495Z,100238.47
2022-08-22T20:28:41.060Z,100238.84
2022-08-22T20:30:51.584Z,100237.88
2022-08-22T20:32:59.533Z,100233.69
2022-08-22T20:35:05.556Z,100238.41
2022-08-22T20:37:29.637Z,100241.47
2022-08-22T20:39:40.243Z,100238.47
2022-08-22T20:41:46.935Z,100236.63
2022-08-22T20:43:52.907Z,100242.97
2022-08-22T20:46:07.120Z,100241.06
2022-08-22T20:48:11.488Z,100249.31
2022-08-22T20:50:14.412Z,100242.19
2022-08-22T20:52:26.829Z,100239.28
2022-08-22T20:54:31.692Z,100240.53
2022-08-22T20:56:48.667Z,100243.97
2022-08-22T20:59:00.934Z,100241.41
2022-08-22T21:01:07.664Z,100243.38
2022-08-22T21:03:22.934Z,100247.22
2022-08-22T21:05:32.698Z,100241.19
2022-08-22T21:07:38.483Z,100239.66
2022-08-22T21:09:58.803Z,100247.31
2022-08-22T21:12:02.272Z,100245.44
2022-08-22T21:14:19.364Z,100257.16
2022-08-22T21:16:31.674Z,100248.41
2022-08-22T21:18:36.691Z,100252.97
2022-08-22T21:20:39.983Z,100247.00
2022-08-22T21:22:43.244Z,100252.56
2022-08-22T21:24:47.185Z,100253.75
2022-08-22T21:26:55.014Z,100255.72
2022-08-22T21:29:01.758Z,100262.09
2022-08-22T21:31:13.011Z,100256.75
2022-08-22T21:33:23.621Z,100264.81
2022-08-22T21:35:31.103Z,100259.66
2022-08-22T21:37:39.703Z,100267.84
2022-08-22T21:39:46.101Z,100267.75
2022-08-22T21:41:51.588Z,100264.97
2022-08-22T21:43:54.698Z,100264.81
2022-08-22T21:45:57.745Z,100262.94
2022-08-22T21:48:02.032Z,100255.81
2022-08-22T21:50:15.458Z,100257.34
2022-08-22T21:52:27.092Z,100264.09
2022-08-22T21:54:41.004Z,100258.22
2022-08-22T21:56:43.922Z,100258.63
2022-08-22T21:58:46.965Z,100260.59
2022-08-22T22:00:52.010Z,100256.75
2022-08-22T22:03:00.930Z,100250.72
2022-08-22T22:05:11.328Z,100261.50
2022-08-22T22:07:14.591Z,100261.66
2022-08-22T22:09:18.428Z,100268.34
2022-08-22T22:11:21.384Z,100266.75
2022-08-22T22:13:27.135Z,100263.78
2022-08-22T22:15:34.974Z,100269.25
2022-08-22T22:17:37.827Z,100275.31
2022-08-22T22:19:40.687Z,100277.16
2022-08-22T22:21:45.300Z,100281.22
2022-08-22T22:23:49.277Z,100282.97
2022-08-22T22:25:53.428Z,100285.69
2022-08-22T22:27:56.402Z,100286.69
2022-08-22T22:30:01.193Z,100288.13
2022-08-22T22:32:04.827Z,100286.38
2022-08-22T22:34:07.686Z,100285.94
2022-08-22T22:36:15.308Z,100287.56
2022-08-22T22:38:23.714Z,100284.69
2022-08-22T22:40:27.139Z,100293.53
2022-08-22T22:42:30.047Z,100282.19
2022-08-22T22:44:32.898Z,100293.34
2022-08-22T22:46:35.738Z,100301.47
2022-08-22T22:48:38.569Z,100297.81
2022-08-22T22:50:43.982Z,100288.91
2022-08-22T22:52:46.873Z,100298.56
2022-08-22T22:54:51.146Z,100306.63
2022-08-22T22:56:54.060Z,100301.91
2022-08-22T22:59:00.753Z,100305.84
2022-08-22T23:01:19.334Z,100310.53
2022-08-22T23:03:22.702Z,100300.41
2022-08-22T23:05:25.522Z,100307.38
2022-08-22T23:07:28.757Z,100302.16
2022-08-22T23:09:38.341Z,100304.44
2022-08-22T23:11:48.648Z,100309.31
2022-08-22T23:13:51.825Z,100318.28
2022-08-22T23:15:54.665Z,100306.59
2022-08-22T23:17:57.551Z,100316.81
2022-08-22T23:20:01.169Z,100302.06
2022-08-22T23:22:04.034Z,100311.19
2022-08-22T23:24:08.881Z,100330.44
2022-08-22T23:26:12.754Z,100322.25
2022-08-22T23:28:16.891Z,100326.88
2022-08-22T23:30:19.808Z,100333.91
2022-08-22T23:32:22.669Z,100321.31
2022-08-22T23:34:29.839Z,100330.03
2022-08-22T23:36:32.846Z,100312.63
2022-08-22T23:38:35.692Z,100322.97
2022-08-22T23:40:38.516Z,100328.81
2022-08-22T23:42:41.308Z,100325.34
2022-08-22T23:44:46.264Z,100330.75
2022-08-22T23:46:49.261Z,100331.72
2022-08-22T23:48:52.284Z,100331.72
2022-08-22T23:50:55.096Z,100328.16
2022-08-22T23:52:57.910Z,100330.88
2022-08-22T23:55:00.730Z,100330.94
2022-08-22T23:57:11.860Z,100335.56
2022-08-22T23:59:18.131Z,100332.63
